x

Sand Key, Fl (sanf1) Weather Station

8:50pm - Sat 23rd Jul 2016 All times are CDT. -4 hours from GMT.

  • Wind
    13mph, 18mph gusts
  • Air Temp 82°f
  • Sea Pressure 1017.4mb
  • Sand Key, Fl
  • Sand Key, Fl

More Historic Weather Station data

Upgrade to MSW Pro to gain access to the past 30 days of data for over 8000 Wavebouys and Weather Stations around the globe.

Join Pro

Comparision Forecast

View Surf forecast
   
Sat 07/23 8:50pm 13 18 mph 1017.4mb 82f
7:50pm 6 7 mph 1017.2mb 84f
6:50pm 5 7 mph 1016.6mb 84f
5:50pm 7 8 mph 1016.1mb 84f
4:50pm 7 8 mph 1016.1mb 84f
3:50pm 6 7 mph 1016.4mb 84f
2:50pm  -  mph 1017.2mb 83f
1:50pm  -  mph 1017.8mb 84f
12:50pm  -  mph 1017.8mb 83f
11:50am  -  mph 1017.8mb 83f
10:50am  -  mph 1017.3mb 83f
9:50am 7 8 mph 1017.1mb 83f
8:50am 7 9 mph 1016.9mb 83f
7:50am 5 6 mph 1016.8mb 83f
6:50am 5 6 mph 1016.5mb 82f
5:50am 6 7 mph 1016.5mb 83f
4:50am 8 9 mph 1016.3mb 83f
3:50am 8 10 mph 1016.3mb 82f
2:50am 14 16 mph 1017mb 82f
1:50am 15 18 mph 1017.4mb 83f
12:50am 14 16 mph 1017.8mb 83f
Fri 07/22 11:50pm 18 21 mph 1017.7mb 83f
10:50pm 9 10 mph 1017.4mb 84f
9:50pm 5 6 mph 1017.6mb 84f
8:50pm 7 9 mph 1017.4mb 84f
7:50pm 10 16 mph 1017.2mb 84f
6:50pm 7 8 mph 1017.1mb 84f
5:50pm 8 9 mph 1017.1mb 84f
4:50pm 8 9 mph 1017.4mb 84f
3:50pm 5 8 mph 1018mb 84f
2:50pm 5 7 mph 1018.4mb 84f
1:50pm 6 9 mph 1018.8mb 84f
12:50pm 5 6 mph 1019mb 84f
11:50am 5 7 mph 1019.3mb 84f
10:50am 8
mph
1019.2mb 84f
9:50am 9 10 mph 1018.6mb 84f
8:50am 11 13 mph 1018mb 84f
7:50am 13 14 mph 1018.2mb 83f
6:50am 14 15 mph 1017.7mb 83f
5:50am 13 14 mph 1017.3mb 83f
4:50am 10 11 mph 1017.2mb 83f
3:50am 8 9 mph 1017.3mb 83f
2:50am 11 14 mph 1017.9mb 83f
1:50am 9 11 mph 1018.4mb 83f
12:50am 11 13 mph 1019mb 84f
Thu 07/21 11:50pm 14 15 mph 1019.2mb 84f
10:50pm 13 15 mph 1019.1mb 83f
9:50pm 11 14 mph 1018.8mb 83f
8:50pm 13 15 mph 1018mb 83f
7:50pm 14 16 mph 1017.2mb 84f
6:50pm 14
mph
1017.1mb 83f
5:50pm 11 13 mph 1017.7mb 83f
4:50pm 7 9 mph 1018mb 83f
3:50pm 5 6 mph 1018.3mb 83f
2:50pm 3 5 mph 1018.7mb 83f
1:50pm 3 5 mph 1018.8mb 83f
12:50pm 6
mph
1019.5mb 82f
11:50am 6 7 mph 1019.5mb 79f
10:50am 21 26 mph 1019.5mb 79f
9:50am 7 10 mph 1018.9mb 82f
8:50am 5 8 mph 1018.3mb 82f
7:50am 9 11 mph 1017.8mb 80f
6:50am  -  11 mph 1017.7mb 82f
5:50am 11 15 mph 1017mb 83f
4:50am 10 13 mph 1017.2mb 83f
3:50am 13 14 mph 1017.2mb 83f
2:50am 11 13 mph 1017.7mb 83f
1:50am 16 17 mph 1018.2mb 84f
12:50am 16 18 mph 1018.6mb 84f
Wed 07/20 11:50pm 17 18 mph 1018.5mb 84f
10:50pm 18 21 mph 1018.2mb 84f
9:50pm 20 22 mph 1018mb 84f
8:50pm 18 21 mph 1017.5mb 84f
7:50pm 17 20 mph 1017.5mb 84f
6:50pm 17 18 mph 1017.9mb 84f
5:50pm 14 15 mph 1017.7mb 83f
4:50pm 11 15 mph 1018.1mb 83f
3:50pm 20 22 mph 1018.1mb 82f
2:50pm 15 17 mph 1018.9mb 84f
1:50pm 16 18 mph 1019.1mb 83f
12:50pm 11 13 mph 1019.4mb 82f
11:50am 14
mph
1019.6mb 78f
10:50am 11 13 mph 1019.1mb 83f
9:50am 15 22 mph 1018.9mb 80f
8:50am 9 11 mph 1018.5mb 80f
7:50am 21 26 mph 1018mb 79f
6:50am 16 18 mph 1017.3mb 81f
5:50am 17 20 mph 1017.3mb 81f
4:50am 14 15 mph 1017.4mb 83f
3:50am 18 21 mph 1017.4mb 83f
2:50am 22 24 mph 1017.6mb 83f
1:50am 22 24 mph 1017.8mb 84f